Time;durP1;ratioP1;P1;durP2;ratioP2;P2;SDS_P1;SDS_P2;PMS_P1;PMS_P2;Temp;Humidity;BMP_temperature;BMP_pressure;BME280_temperature;BME280_humidity;BME280_pressure;Samples;Min_cycle;Max_cycle;Signal;HPM_P1;HPM_P2
2023/08/07 00:01:36;;;;;;;0.20;0.20;;;;;;;;;;5112389;28;20048;-62
2023/08/07 00:04:02;;;;;;;0.20;0.20;;;;;;;;;;5113593;28;20105;-61
2023/08/07 00:06:28;;;;;;;0.17;0.17;;;;;;;;;;5126922;28;20047;-62
2023/08/07 00:08:53;;;;;;;0.10;0.10;;;;;;;;;;5127742;28;20155;-61
2023/08/07 00:11:19;;;;;;;0.20;0.20;;;;;;;;;;5126594;28;20047;-62
2023/08/07 00:13:44;;;;;;;0.10;0.10;;;;;;;;;;5126969;28;20047;-61
2023/08/07 00:16:10;;;;;;;0.10;0.10;;;;;;;;;;5127831;28;20058;-61
2023/08/07 00:18:36;;;;;;;0.20;0.20;;;;;;;;;;5127287;28;20134;-62
2023/08/07 00:21:01;;;;;;;0.20;0.20;;;;;;;;;;5117525;28;20142;-62
2023/08/07 00:23:27;;;;;;;0.15;0.15;;;;;;;;;;5106856;28;20051;-62
2023/08/07 00:25:52;;;;;;;0.20;0.20;;;;;;;;;;5116408;27;20071;-62
2023/08/07 00:28:18;;;;;;;0.20;0.20;;;;;;;;;;5126899;28;20145;-62
2023/08/07 00:30:43;;;;;;;0.20;0.20;;;;;;;;;;5125957;28;20372;-61
2023/08/07 00:33:09;;;;;;;0.10;0.10;;;;;;;;;;5126233;28;20078;-61
2023/08/07 00:35:34;;;;;;;0.20;0.20;;;;;;;;;;5127207;28;20078;-62
2023/08/07 00:38:00;;;;;;;0.20;0.20;;;;;;;;;;5126774;28;20051;-62
2023/08/07 00:40:25;;;;;;;0.20;0.20;;;;;;;;;;5125019;28;20047;-62
2023/08/07 00:42:51;;;;;;;0.30;0.30;;;;;;;;;;5127005;28;20349;-62
2023/08/07 00:45:17;;;;;;;0.20;0.20;;;;;;;;;;5126899;28;20458;-61
2023/08/07 00:47:43;;;;;;;0.15;0.15;;;;;;;;;;5128169;28;20054;-61
2023/08/07 00:50:09;;;;;;;0.20;0.20;;;;;;;;;;5126901;28;20060;-62
2023/08/07 00:52:34;;;;;;;0.20;0.20;;;;;;;;;;5126937;28;20065;-62
2023/08/07 00:55:00;;;;;;;0.10;0.10;;;;;;;;;;5127705;28;20479;-62
2023/08/07 00:57:26;;;;;;;0.20;0.20;;;;;;;;;;5128111;28;20043;-62
2023/08/07 00:59:52;;;;;;;0.20;0.20;;;;;;;;;;5127382;28;20410;-59
2023/08/07 01:02:18;;;;;;;0.20;0.20;;;;;;;;;;5126731;28;20054;-61
2023/08/07 01:04:44;;;;;;;0.20;0.20;;;;;;;;;;5127619;27;20049;-62
2023/08/07 01:07:09;;;;;;;0.20;0.20;;;;;;;;;;5126473;28;20050;-61
2023/08/07 01:09:35;;;;;;;0.20;0.20;;;;;;;;;;5127457;27;20484;-62
2023/08/07 01:12:08;;;;;;;0.20;0.20;;;;;;;;;;5112324;28;20050;-61
2023/08/07 01:14:40;;;;;;;0.20;0.20;;;;;;;;;;5128781;27;20350;-61
2023/08/07 01:17:07;;;;;;;0.20;0.20;;;;;;;;;;5131456;28;20054;-62
2023/08/07 01:19:34;;;;;;;0.20;0.20;;;;;;;;;;5130700;28;20055;-62
2023/08/07 01:22:15;;;;;;;0.10;0.10;;;;;;;;;;5131219;28;20438;-61
2023/08/07 01:24:42;;;;;;;0.13;0.13;;;;;;;;;;5130031;27;20043;-61
2023/08/07 01:27:19;;;;;;;0.20;0.20;;;;;;;;;;5131058;27;20051;-62
2023/08/07 01:29:54;;;;;;;0.20;0.20;;;;;;;;;;5129716;28;20108;-62
2023/08/07 01:32:28;;;;;;;0.17;0.17;;;;;;;;;;5121138;28;20415;-62
2023/08/07 01:34:55;;;;;;;0.20;0.20;;;;;;;;;;5129005;27;20198;-61
2023/08/07 01:37:21;;;;;;;0.20;0.20;;;;;;;;;;5130826;27;20047;-62
2023/08/07 01:39:48;;;;;;;0.20;0.20;;;;;;;;;;5130605;27;20069;-61
2023/08/07 01:42:14;;;;;;;0.20;0.20;;;;;;;;;;5121099;28;20042;-62
2023/08/07 01:44:39;;;;;;;0.20;0.20;;;;;;;;;;5129710;28;20085;-62
2023/08/07 01:47:05;;;;;;;0.20;0.20;;;;;;;;;;5130525;28;20051;-61
2023/08/07 01:49:30;;;;;;;0.20;0.20;;;;;;;;;;5130308;28;20047;-61
2023/08/07 01:51:56;;;;;;;0.20;0.20;;;;;;;;;;5110789;28;20550;-62
2023/08/07 01:54:21;;;;;;;0.20;0.20;;;;;;;;;;5111960;28;20039;-61
2023/08/07 01:56:47;;;;;;;0.10;0.10;;;;;;;;;;5130874;28;20039;-62
2023/08/07 01:59:12;;;;;;;0.20;0.20;;;;;;;;;;5130383;28;20051;-61
2023/08/07 02:01:38;;;;;;;0.20;0.20;;;;;;;;;;5129929;28;20043;-47
2023/08/07 02:04:04;;;;;;;0.20;0.20;;;;;;;;;;5129512;28;20544;-47
2023/08/07 02:06:29;;;;;;;0.20;0.20;;;;;;;;;;5129589;28;20047;-48
2023/08/07 02:08:55;;;;;;;0.20;0.20;;;;;;;;;;5128868;28;20051;-47
2023/08/07 02:11:20;;;;;;;0.20;0.20;;;;;;;;;;5129796;28;20502;-48
2023/08/07 02:13:46;;;;;;;0.10;0.10;;;;;;;;;;5129318;28;20059;-47
2023/08/07 02:16:11;;;;;;;0.20;0.20;;;;;;;;;;5129530;28;20487;-49
2023/08/07 02:18:37;;;;;;;0.20;0.20;;;;;;;;;;5130110;28;20231;-47
2023/08/07 02:21:02;;;;;;;0.20;0.20;;;;;;;;;;5130026;28;20309;-47
2023/08/07 02:23:28;;;;;;;0.20;0.20;;;;;;;;;;5129654;28;20095;-48
2023/08/07 02:25:54;;;;;;;0.20;0.20;;;;;;;;;;5127578;27;20534;-47
2023/08/07 02:28:19;;;;;;;0.20;0.20;;;;;;;;;;5130125;28;20506;-49
2023/08/07 02:30:48;;;;;;;0.15;0.15;;;;;;;;;;5127795;28;20451;-47
2023/08/07 02:33:14;;;;;;;0.20;0.20;;;;;;;;;;5129232;27;20054;-49
2023/08/07 02:35:40;;;;;;;0.20;0.20;;;;;;;;;;5129182;28;20047;-48
2023/08/07 02:38:05;;;;;;;0.15;0.15;;;;;;;;;;5129356;28;20067;-48
2023/08/07 02:40:31;;;;;;;0.13;0.13;;;;;;;;;;5123059;28;20052;-47
2023/08/07 02:42:56;;;;;;;0.20;0.20;;;;;;;;;;5113593;28;20043;-47
2023/08/07 02:45:22;;;;;;;0.10;0.10;;;;;;;;;;5128779;28;20134;-48
2023/08/07 02:47:47;;;;;;;0.10;0.10;;;;;;;;;;5129154;28;20534;-47
2023/08/07 02:50:13;;;;;;;0.20;0.20;;;;;;;;;;5129089;28;20496;-47
2023/08/07 02:52:39;;;;;;;0.20;0.20;;;;;;;;;;5129414;28;20431;-47
2023/08/07 02:55:04;;;;;;;0.20;0.20;;;;;;;;;;5128507;28;20518;-47
2023/08/07 02:57:30;;;;;;;0.20;0.20;;;;;;;;;;5129590;28;20043;-47
2023/08/07 02:59:55;;;;;;;0.32;0.32;;;;;;;;;;5129164;28;20409;-48
2023/08/07 03:02:21;;;;;;;0.20;0.20;;;;;;;;;;5130073;28;20047;-48
2023/08/07 03:04:47;;;;;;;0.20;0.20;;;;;;;;;;5127565;28;20138;-48
2023/08/07 03:07:12;;;;;;;0.20;0.20;;;;;;;;;;5129130;28;20192;-48
2023/08/07 03:09:38;;;;;;;0.20;0.20;;;;;;;;;;5128421;28;20378;-47
2023/08/07 03:12:04;;;;;;;0.20;0.20;;;;;;;;;;5128535;28;20043;-48
2023/08/07 03:14:30;;;;;;;0.20;0.20;;;;;;;;;;5128197;28;20130;-48
2023/08/07 03:16:56;;;;;;;0.20;0.20;;;;;;;;;;5128686;28;20057;-47
2023/08/07 03:19:22;;;;;;;0.20;0.20;;;;;;;;;;5128417;28;20047;-47
2023/08/07 03:21:47;;;;;;;0.20;0.20;;;;;;;;;;5116120;28;20062;-47
2023/08/07 03:24:13;;;;;;;0.20;0.20;;;;;;;;;;5119432;28;20054;-48
2023/08/07 03:26:38;;;;;;;0.20;0.20;;;;;;;;;;5143880;27;20043;-48
2023/08/07 03:29:04;;;;;;;0.20;0.20;;;;;;;;;;5136062;27;20108;-48
2023/08/07 03:31:29;;;;;;;0.20;0.20;;;;;;;;;;5127850;28;20043;-48
2023/08/07 03:33:55;;;;;;;0.20;0.20;;;;;;;;;;5127573;28;20139;-48
2023/08/07 03:36:21;;;;;;;0.20;0.20;;;;;;;;;;5126018;27;20096;-49
2023/08/07 03:38:47;;;;;;;0.10;0.10;;;;;;;;;;5126832;27;20051;-47
2023/08/07 03:41:12;;;;;;;0.20;0.20;;;;;;;;;;5127273;28;20047;-48
2023/08/07 03:43:38;;;;;;;0.20;0.20;;;;;;;;;;5128094;28;20527;-48
2023/08/07 03:46:03;;;;;;;0.20;0.20;;;;;;;;;;5127387;28;20044;-48
2023/08/07 03:48:29;;;;;;;0.20;0.20;;;;;;;;;;5127262;28;20059;-48
2023/08/07 03:51:11;;;;;;;0.20;0.20;;;;;;;;;;5117213;27;20580;-46
2023/08/07 03:53:37;;;;;;;0.20;0.20;;;;;;;;;;5106994;28;20059;-48
2023/08/07 03:56:03;;;;;;;0.13;0.13;;;;;;;;;;5121204;28;20051;-47
2023/08/07 03:58:29;;;;;;;0.10;0.10;;;;;;;;;;5128414;28;20450;-47
2023/08/07 04:00:55;;;;;;;0.13;0.13;;;;;;;;;;5117914;28;20071;-47
2023/08/07 04:03:21;;;;;;;0.20;0.20;;;;;;;;;;5106907;28;20054;-47
2023/08/07 04:05:46;;;;;;;0.10;0.10;;;;;;;;;;5117195;28;20462;-49
2023/08/07 04:08:12;;;;;;;0.20;0.20;;;;;;;;;;5127594;28;20051;-48
2023/08/07 04:10:37;;;;;;;0.20;0.20;;;;;;;;;;5122801;28;20044;-49
2023/08/07 04:13:03;;;;;;;0.15;0.15;;;;;;;;;;5125823;28;20054;-47
2023/08/07 04:15:29;;;;;;;0.20;0.20;;;;;;;;;;5127646;28;20062;-48
2023/08/07 04:17:55;;;;;;;0.20;0.20;;;;;;;;;;5128385;28;20047;-48
2023/08/07 04:20:20;;;;;;;0.20;0.20;;;;;;;;;;5128015;28;20066;-48
2023/08/07 04:22:46;;;;;;;0.20;0.20;;;;;;;;;;5121134;28;20153;-47
2023/08/07 04:25:12;;;;;;;0.20;0.20;;;;;;;;;;5124740;27;20062;-49
2023/08/07 04:27:38;;;;;;;0.20;0.20;;;;;;;;;;5128538;28;20047;-48
2023/08/07 04:30:04;;;;;;;0.20;0.20;;;;;;;;;;5127576;28;20072;-48
2023/08/07 04:32:30;;;;;;;0.20;0.20;;;;;;;;;;5128003;28;20476;-48
2023/08/07 04:34:55;;;;;;;0.20;0.20;;;;;;;;;;5127442;28;20054;-48
2023/08/07 04:37:22;;;;;;;0.20;0.20;;;;;;;;;;5128024;28;20403;-48
2023/08/07 04:39:47;;;;;;;0.20;0.20;;;;;;;;;;5127954;27;20083;-51
2023/08/07 04:42:13;;;;;;;0.20;0.20;;;;;;;;;;5107306;28;20652;-51
2023/08/07 04:44:39;;;;;;;0.20;0.20;;;;;;;;;;5108270;28;20054;-52
2023/08/07 04:47:04;;;;;;;0.20;0.20;;;;;;;;;;5127179;28;20331;-52
2023/08/07 04:49:30;;;;;;;0.13;0.13;;;;;;;;;;5128741;27;20053;-52
2023/08/07 04:51:55;;;;;;;0.20;0.20;;;;;;;;;;5130366;28;20304;-51
2023/08/07 04:54:21;;;;;;;0.20;0.20;;;;;;;;;;5122630;28;20042;-52
2023/08/07 04:56:46;;;;;;;0.10;0.10;;;;;;;;;;5126779;28;20047;-52
2023/08/07 04:59:12;;;;;;;0.20;0.20;;;;;;;;;;5121335;28;20311;-51
2023/08/07 05:01:38;;;;;;;0.13;0.13;;;;;;;;;;5121442;27;20099;-51
2023/08/07 05:04:05;;;;;;;0.20;0.20;;;;;;;;;;5123775;28;20051;-52
2023/08/07 05:06:30;;;;;;;0.20;0.20;;;;;;;;;;5129062;28;20043;-52
2023/08/07 05:08:56;;;;;;;0.20;0.20;;;;;;;;;;5128941;28;20043;-51
2023/08/07 05:11:22;;;;;;;0.22;0.22;;;;;;;;;;5128740;28;20057;-48
2023/08/07 05:13:47;;;;;;;0.10;0.10;;;;;;;;;;5125854;28;20068;-49
2023/08/07 05:16:13;;;;;;;0.20;0.20;;;;;;;;;;5126671;28;20039;-47
2023/08/07 05:18:38;;;;;;;0.20;0.20;;;;;;;;;;5120214;28;20050;-51
2023/08/07 05:21:04;;;;;;;0.20;0.20;;;;;;;;;;5124338;27;20092;-51
2023/08/07 05:23:29;;;;;;;0.20;0.20;;;;;;;;;;5121674;27;20038;-52
2023/08/07 05:25:55;;;;;;;0.20;0.20;;;;;;;;;;5127482;27;20088;-48
2023/08/07 05:28:21;;;;;;;0.20;0.20;;;;;;;;;;5126086;27;20082;-49
2023/08/07 05:30:46;;;;;;;0.10;0.10;;;;;;;;;;5127255;28;20043;-50
2023/08/07 05:33:14;;;;;;;0.17;0.17;;;;;;;;;;5127924;28;20400;-51
2023/08/07 05:35:40;;;;;;;0.10;0.10;;;;;;;;;;5122965;28;20074;-51
2023/08/07 05:38:05;;;;;;;0.20;0.20;;;;;;;;;;5128264;28;20090;-53
2023/08/07 05:40:31;;;;;;;0.20;0.20;;;;;;;;;;5118996;27;20479;-51
2023/08/07 05:42:56;;;;;;;0.17;0.17;;;;;;;;;;5121381;27;20043;-51
2023/08/07 05:45:22;;;;;;;0.20;0.20;;;;;;;;;;5124381;28;20051;-51
2023/08/07 05:47:47;;;;;;;0.20;0.20;;;;;;;;;;5125688;27;20487;-48
2023/08/07 05:50:13;;;;;;;0.10;0.10;;;;;;;;;;5126519;28;20116;-52
2023/08/07 05:52:38;;;;;;;0.20;0.20;;;;;;;;;;5126332;28;20123;-48
2023/08/07 05:55:04;;;;;;;0.20;0.20;;;;;;;;;;5131386;27;20071;-51
2023/08/07 05:57:32;;;;;;;0.20;0.20;;;;;;;;;;5126855;28;20133;-52
2023/08/07 05:59:58;;;;;;;0.20;0.20;;;;;;;;;;5129253;27;20048;-52
2023/08/07 06:02:24;;;;;;;0.20;0.20;;;;;;;;;;5122508;27;20070;-47
2023/08/07 06:04:49;;;;;;;0.20;0.20;;;;;;;;;;5121370;28;20043;-49
2023/08/07 06:07:15;;;;;;;0.20;0.20;;;;;;;;;;5117880;28;20043;-49
2023/08/07 06:09:40;;;;;;;0.20;0.20;;;;;;;;;;5124077;28;20083;-52
2023/08/07 06:12:06;;;;;;;0.20;0.20;;;;;;;;;;5118791;28;20556;-50
2023/08/07 06:14:32;;;;;;;0.20;0.20;;;;;;;;;;5117663;28;20059;-51
2023/08/07 06:17:00;;;;;;;0.20;0.20;;;;;;;;;;5111957;28;20050;-51
2023/08/07 06:19:27;;;;;;;0.10;0.10;;;;;;;;;;5121980;28;20043;-49
2023/08/07 06:21:58;;;;;;;0.20;0.20;;;;;;;;;;5119427;27;20823;-50
2023/08/07 06:24:25;;;;;;;0.20;0.20;;;;;;;;;;5117053;27;20046;-51
2023/08/07 06:26:51;;;;;;;0.10;0.10;;;;;;;;;;5113898;27;20035;-51
2023/08/07 06:29:16;;;;;;;0.20;0.20;;;;;;;;;;5115998;28;20605;-52
2023/08/07 06:31:42;;;;;;;0.20;0.20;;;;;;;;;;5118913;28;20397;-50
2023/08/07 06:34:08;;;;;;;0.20;0.20;;;;;;;;;;5114897;28;20412;-51
2023/08/07 06:36:34;;;;;;;0.20;0.20;;;;;;;;;;5103213;27;20055;-51
2023/08/07 06:38:59;;;;;;;0.17;0.17;;;;;;;;;;5112841;28;20690;-53
2023/08/07 06:41:25;;;;;;;0.15;0.15;;;;;;;;;;5107798;27;20071;-50
2023/08/07 06:43:51;;;;;;;0.20;0.20;;;;;;;;;;5110354;27;20145;-53
2023/08/07 06:46:17;;;;;;;0.20;0.20;;;;;;;;;;5112819;28;20047;-51
2023/08/07 06:48:43;;;;;;;0.20;0.20;;;;;;;;;;5110910;28;20088;-52
2023/08/07 06:51:08;;;;;;;0.20;0.20;;;;;;;;;;5108033;27;20423;-50
2023/08/07 06:53:34;;;;;;;0.20;0.20;;;;;;;;;;5100820;27;20115;-51
2023/08/07 06:55:59;;;;;;;0.17;0.17;;;;;;;;;;5100554;27;20047;-54
2023/08/07 06:58:25;;;;;;;0.10;0.10;;;;;;;;;;5098936;27;20142;-52
2023/08/07 07:00:51;;;;;;;0.20;0.20;;;;;;;;;;5090553;27;20046;-52
2023/08/07 07:03:16;;;;;;;0.55;0.25;;;;;;;;;;5095646;27;20577;-52
2023/08/07 07:05:42;;;;;;;0.20;0.20;;;;;;;;;;5088787;27;20042;-50
2023/08/07 07:08:08;;;;;;;0.20;0.20;;;;;;;;;;5092326;27;20491;-52
2023/08/07 07:10:34;;;;;;;0.20;0.20;;;;;;;;;;5101801;27;20079;-52
2023/08/07 07:13:00;;;;;;;0.20;0.20;;;;;;;;;;5101754;27;20144;-53
2023/08/07 07:15:25;;;;;;;0.20;0.20;;;;;;;;;;5094736;27;20962;-54
2023/08/07 07:17:51;;;;;;;0.20;0.20;;;;;;;;;;5096678;27;20055;-51
2023/08/07 07:20:17;;;;;;;0.30;0.30;;;;;;;;;;5098037;27;20039;-52
2023/08/07 07:22:42;;;;;;;0.20;0.20;;;;;;;;;;5112800;27;20493;-52
2023/08/07 07:25:08;;;;;;;0.20;0.20;;;;;;;;;;5112234;27;20835;-53
2023/08/07 07:27:33;;;;;;;0.20;0.20;;;;;;;;;;5112937;27;20653;-50
2023/08/07 07:29:59;;;;;;;0.20;0.20;;;;;;;;;;5111003;27;20039;-52
2023/08/07 07:32:26;;;;;;;0.20;0.20;;;;;;;;;;5108005;27;20045;-51
2023/08/07 07:34:51;;;;;;;0.20;0.20;;;;;;;;;;5112353;27;20526;-52
2023/08/07 07:37:17;;;;;;;0.20;0.20;;;;;;;;;;5110604;27;20107;-52
2023/08/07 07:39:43;;;;;;;0.20;0.20;;;;;;;;;;5111432;27;20055;-51
2023/08/07 07:42:08;;;;;;;0.20;0.20;;;;;;;;;;5114823;27;20182;-51
2023/08/07 07:44:36;;;;;;;0.20;0.20;;;;;;;;;;5121274;27;20055;-51
2023/08/07 07:47:01;;;;;;;0.10;0.10;;;;;;;;;;5118668;27;20085;-52
2023/08/07 07:49:27;;;;;;;0.20;0.20;;;;;;;;;;5120833;28;20051;-52
2023/08/07 07:51:52;;;;;;;0.20;0.20;;;;;;;;;;5118053;27;21057;-52
2023/08/07 07:54:18;;;;;;;0.20;0.20;;;;;;;;;;5112312;27;20129;-52
2023/08/07 07:56:43;;;;;;;0.20;0.20;;;;;;;;;;5115454;27;20059;-50
2023/08/07 07:59:09;;;;;;;0.20;0.20;;;;;;;;;;5110599;27;20142;-52
2023/08/07 08:01:35;;;;;;;0.20;0.20;;;;;;;;;;5118219;27;20055;-52
2023/08/07 08:04:01;;;;;;;0.20;0.20;;;;;;;;;;5115589;27;20046;-51
2023/08/07 08:06:27;;;;;;;0.20;0.20;;;;;;;;;;5112060;27;20719;-52
2023/08/07 08:08:52;;;;;;;0.20;0.20;;;;;;;;;;5111475;28;20325;-58
2023/08/07 08:11:18;;;;;;;0.20;0.20;;;;;;;;;;5106145;28;21462;-49
2023/08/07 08:13:43;;;;;;;0.20;0.20;;;;;;;;;;5111832;27;20142;-57
2023/08/07 08:16:09;;;;;;;0.20;0.20;;;;;;;;;;5112804;27;20048;-48
2023/08/07 08:18:34;;;;;;;0.20;0.20;;;;;;;;;;5112873;28;20069;-49
2023/08/07 08:21:00;;;;;;;0.20;0.20;;;;;;;;;;5113597;27;20039;-53
2023/08/07 08:23:26;;;;;;;0.20;0.20;;;;;;;;;;5118662;27;20041;-52
2023/08/07 08:25:51;;;;;;;0.20;0.20;;;;;;;;;;5118306;27;20082;-53
2023/08/07 08:28:17;;;;;;;0.20;0.20;;;;;;;;;;5124611;28;20039;-52
2023/08/07 08:30:43;;;;;;;0.20;0.20;;;;;;;;;;5122690;28;20047;-51
2023/08/07 08:33:12;;;;;;;0.20;0.20;;;;;;;;;;5112304;27;20047;-52
2023/08/07 08:35:38;;;;;;;0.20;0.20;;;;;;;;;;5114217;27;20062;-53
2023/08/07 08:38:03;;;;;;;0.20;0.20;;;;;;;;;;5105270;27;20127;-52
2023/08/07 08:40:30;;;;;;;0.20;0.20;;;;;;;;;;5115319;27;20378;-49
2023/08/07 08:42:57;;;;;;;0.20;0.20;;;;;;;;;;5114091;27;20069;-54
2023/08/07 08:45:25;;;;;;;0.10;0.10;;;;;;;;;;5124737;27;20051;-51
2023/08/07 08:47:51;;;;;;;0.20;0.20;;;;;;;;;;5115971;28;20322;-52
2023/08/07 08:50:17;;;;;;;0.10;0.10;;;;;;;;;;5111495;27;20600;-50
2023/08/07 08:52:44;;;;;;;0.20;0.20;;;;;;;;;;5119632;28;20483;-50
2023/08/07 08:55:11;;;;;;;0.20;0.20;;;;;;;;;;5123157;27;20061;-50
2023/08/07 08:57:37;;;;;;;0.20;0.20;;;;;;;;;;5120657;27;20513;-52
2023/08/07 09:00:10;;;;;;;0.20;0.20;;;;;;;;;;5118821;27;20051;-52
2023/08/07 09:02:36;;;;;;;0.20;0.20;;;;;;;;;;5111848;28;20079;-51
2023/08/07 09:05:02;;;;;;;0.20;0.20;;;;;;;;;;5117207;28;20080;-51
2023/08/07 09:07:27;;;;;;;0.20;0.20;;;;;;;;;;5118355;28;20043;-49
2023/08/07 09:09:53;;;;;;;0.20;0.20;;;;;;;;;;5122691;28;20158;-49
2023/08/07 09:12:20;;;;;;;0.20;0.20;;;;;;;;;;5121364;28;20050;-52
2023/08/07 09:14:49;;;;;;;0.20;0.20;;;;;;;;;;5113938;27;20059;-49
2023/08/07 09:17:15;;;;;;;0.20;0.20;;;;;;;;;;5107868;27;20065;-52
2023/08/07 09:19:41;;;;;;;0.20;0.20;;;;;;;;;;5118512;27;20461;-49
2023/08/07 09:22:06;;;;;;;0.20;0.20;;;;;;;;;;5113594;27;20165;-53
2023/08/07 09:24:32;;;;;;;0.15;0.15;;;;;;;;;;5108000;27;20478;-52
2023/08/07 09:26:58;;;;;;;0.20;0.20;;;;;;;;;;5115117;28;20055;-53
2023/08/07 09:29:24;;;;;;;0.20;0.20;;;;;;;;;;5117296;28;20051;-52
2023/08/07 09:31:50;;;;;;;0.13;0.13;;;;;;;;;;5114860;28;20424;-52
2023/08/07 09:34:19;;;;;;;0.20;0.20;;;;;;;;;;5112812;27;20065;-49
2023/08/07 09:36:45;;;;;;;0.20;0.20;;;;;;;;;;5117670;27;20035;-52
2023/08/07 09:39:10;;;;;;;0.20;0.20;;;;;;;;;;5112187;27;20089;-52
2023/08/07 09:41:36;;;;;;;0.20;0.20;;;;;;;;;;5107636;27;20051;-50
2023/08/07 09:44:10;;;;;;;0.20;0.20;;;;;;;;;;5116790;27;20072;-52
2023/08/07 09:46:44;;;;;;;0.20;0.20;;;;;;;;;;5109553;27;20082;-52
2023/08/07 09:49:10;;;;;;;0.20;0.20;;;;;;;;;;5113249;27;20175;-53
2023/08/07 09:51:51;;;;;;;0.20;0.20;;;;;;;;;;5108969;27;20560;-49
2023/08/07 09:54:16;;;;;;;0.20;0.20;;;;;;;;;;5112105;27;20047;-52
2023/08/07 09:56:43;;;;;;;0.22;0.22;;;;;;;;;;5110707;27;20081;-51
2023/08/07 09:59:09;;;;;;;0.20;0.20;;;;;;;;;;5118291;28;20043;-52
2023/08/07 10:01:38;;;;;;;0.20;0.20;;;;;;;;;;5117326;28;20059;-51
2023/08/07 10:04:05;;;;;;;0.20;0.20;;;;;;;;;;5119979;28;20491;-52
2023/08/07 10:06:31;;;;;;;0.20;0.20;;;;;;;;;;5117440;27;20078;-52
2023/08/07 10:08:57;;;;;;;0.20;0.20;;;;;;;;;;5112322;27;20145;-50
2023/08/07 10:11:23;;;;;;;0.20;0.20;;;;;;;;;;5111946;27;20069;-51
2023/08/07 10:13:49;;;;;;;0.20;0.20;;;;;;;;;;5112779;28;20058;-51
2023/08/07 10:16:14;;;;;;;0.20;0.20;;;;;;;;;;5115541;27;20079;-52
2023/08/07 10:18:40;;;;;;;0.20;0.20;;;;;;;;;;5111108;27;20443;-53
2023/08/07 10:21:06;;;;;;;0.20;0.20;;;;;;;;;;5114805;27;20039;-51
2023/08/07 10:23:34;;;;;;;0.20;0.20;;;;;;;;;;5121869;27;20100;-53
2023/08/07 10:26:01;;;;;;;0.20;0.20;;;;;;;;;;5122027;28;20050;-53
2023/08/07 10:28:27;;;;;;;0.10;0.10;;;;;;;;;;5124241;28;20160;-51
2023/08/07 10:30:55;;;;;;;0.10;0.10;;;;;;;;;;5120533;28;20047;-52
2023/08/07 10:33:21;;;;;;;0.10;0.10;;;;;;;;;;5113553;27;20047;-52
2023/08/07 10:35:48;;;;;;;0.20;0.20;;;;;;;;;;5123962;28;20848;-52
2023/08/07 10:38:14;;;;;;;0.10;0.10;;;;;;;;;;5115387;27;20057;-52
2023/08/07 10:41:00;;;;;;;0.20;0.20;;;;;;;;;;5116813;27;20058;-50
2023/08/07 10:43:27;;;;;;;0.22;0.22;;;;;;;;;;5087436;28;20062;-48
2023/08/07 10:45:53;;;;;;;0.20;0.20;;;;;;;;;;5111487;28;20054;-52
2023/08/07 10:48:20;;;;;;;0.20;0.20;;;;;;;;;;5113496;27;20043;-50
2023/08/07 10:50:49;;;;;;;0.10;0.10;;;;;;;;;;5120318;27;20058;-49
2023/08/07 10:53:34;;;;;;;0.10;0.10;;;;;;;;;;5120259;27;20043;-51
2023/08/07 10:56:01;;;;;;;0.20;0.20;;;;;;;;;;5107018;28;20043;-46
2023/08/07 10:58:35;;;;;;;0.10;0.10;;;;;;;;;;5124137;27;20593;-53
2023/08/07 11:01:15;;;;;;;0.20;0.20;;;;;;;;;;5118233;27;20069;-52
2023/08/07 11:03:42;;;;;;;0.20;0.20;;;;;;;;;;5109337;28;20051;-52
2023/08/07 11:06:09;;;;;;;0.17;0.17;;;;;;;;;;5117917;28;20068;-53
2023/08/07 11:08:34;;;;;;;0.20;0.20;;;;;;;;;;5119826;28;20066;-52
2023/08/07 11:11:04;;;;;;;0.20;0.20;;;;;;;;;;5117025;27;20618;-52
2023/08/07 11:13:29;;;;;;;0.20;0.20;;;;;;;;;;5117717;27;20031;-52
2023/08/07 11:15:55;;;;;;;0.10;0.10;;;;;;;;;;5120366;28;20434;-52
2023/08/07 11:18:22;;;;;;;0.10;0.10;;;;;;;;;;5114497;27;20047;-51
2023/08/07 11:20:48;;;;;;;0.20;0.20;;;;;;;;;;5113223;27;20047;-48
2023/08/07 11:23:13;;;;;;;0.20;0.20;;;;;;;;;;5118000;27;20111;-51
2023/08/07 11:25:39;;;;;;;0.20;0.20;;;;;;;;;;5118971;28;20103;-55
2023/08/07 11:28:04;;;;;;;0.20;0.20;;;;;;;;;;5119940;28;20522;-51
2023/08/07 11:30:31;;;;;;;0.10;0.10;;;;;;;;;;5117716;27;20461;-52
2023/08/07 11:32:56;;;;;;;0.20;0.20;;;;;;;;;;5116027;27;20050;-53
2023/08/07 11:35:22;;;;;;;0.20;0.20;;;;;;;;;;5122193;28;20130;-49
2023/08/07 11:37:48;;;;;;;0.10;0.10;;;;;;;;;;5118472;27;20131;-52
2023/08/07 11:40:13;;;;;;;0.10;0.10;;;;;;;;;;5114884;28;20057;-57
2023/08/07 11:42:40;;;;;;;0.10;0.10;;;;;;;;;;5114335;27;20050;-53
2023/08/07 11:45:06;;;;;;;0.10;0.10;;;;;;;;;;5122657;27;20050;-58
2023/08/07 11:47:32;;;;;;;0.20;0.20;;;;;;;;;;5121082;28;20074;-53
2023/08/07 11:49:58;;;;;;;0.10;0.10;;;;;;;;;;5110896;28;20134;-52
2023/08/07 11:52:24;;;;;;;0.17;0.17;;;;;;;;;;5117438;27;20063;-54
2023/08/07 11:54:52;;;;;;;0.20;0.20;;;;;;;;;;5123152;28;20507;-56
2023/08/07 11:57:18;;;;;;;0.10;0.10;;;;;;;;;;5115251;27;20432;-49
2023/08/07 11:59:47;;;;;;;0.20;0.20;;;;;;;;;;5115194;27;20533;-52
2023/08/07 12:02:12;;;;;;;0.10;0.10;;;;;;;;;;5096534;28;20068;-53
2023/08/07 12:04:38;;;;;;;0.15;0.15;;;;;;;;;;5119869;28;20062;-53
2023/08/07 12:07:03;;;;;;;0.20;0.20;;;;;;;;;;5121628;28;20039;-52
2023/08/07 12:09:30;;;;;;;0.10;0.10;;;;;;;;;;5112914;27;20051;-53
2023/08/07 12:11:57;;;;;;;0.20;0.20;;;;;;;;;;5070219;27;20134;-52
2023/08/07 12:14:22;;;;;;;0.20;0.20;;;;;;;;;;5110232;27;20063;-52
2023/08/07 12:16:49;;;;;;;0.10;0.10;;;;;;;;;;5117151;28;20095;-52
2023/08/07 12:19:16;;;;;;;0.10;0.10;;;;;;;;;;5123351;28;20047;-53
2023/08/07 12:21:41;;;;;;;0.10;0.10;;;;;;;;;;5120234;28;20243;-53
2023/08/07 12:24:07;;;;;;;0.20;0.20;;;;;;;;;;5018400;28;20979;-50
2023/08/07 12:26:33;;;;;;;0.20;0.20;;;;;;;;;;5083321;28;20059;-51
2023/08/07 12:28:58;;;;;;;0.20;0.20;;;;;;;;;;5127952;27;20071;-50
2023/08/07 12:31:24;;;;;;;0.20;0.20;;;;;;;;;;5122950;28;20086;-52
2023/08/07 12:33:50;;;;;;;0.20;0.20;;;;;;;;;;5124432;28;20047;-51
2023/08/07 12:36:16;;;;;;;0.10;0.10;;;;;;;;;;5120723;28;20141;-53
2023/08/07 12:38:44;;;;;;;0.20;0.20;;;;;;;;;;5119110;27;20052;-54
2023/08/07 12:41:10;;;;;;;0.10;0.10;;;;;;;;;;5126101;27;20066;-52
2023/08/07 12:43:56;;;;;;;0.10;0.10;;;;;;;;;;5094184;27;20032;-51
2023/08/07 12:46:21;;;;;;;0.10;0.10;;;;;;;;;;5123755;27;20549;-53
2023/08/07 12:48:50;;;;;;;0.10;0.10;;;;;;;;;;5118321;28;20050;-52
2023/08/07 12:51:16;;;;;;;0.17;0.17;;;;;;;;;;5120008;28;20043;-53
2023/08/07 12:53:42;;;;;;;0.20;0.20;;;;;;;;;;5117848;27;20396;-52
2023/08/07 12:56:07;;;;;;;0.10;0.10;;;;;;;;;;5119669;27;20042;-53
2023/08/07 12:58:34;;;;;;;0.30;0.30;;;;;;;;;;5121221;28;20039;-54
2023/08/07 13:00:59;;;;;;;0.20;0.20;;;;;;;;;;5121469;28;20054;-54
2023/08/07 13:03:25;;;;;;;0.10;0.10;;;;;;;;;;5121778;28;20158;-52
2023/08/07 13:05:50;;;;;;;0.20;0.20;;;;;;;;;;5122359;28;20482;-53
2023/08/07 13:08:16;;;;;;;0.20;0.20;;;;;;;;;;5124956;27;20429;-52
2023/08/07 13:10:42;;;;;;;0.10;0.10;;;;;;;;;;5127815;27;20134;-53
2023/08/07 13:13:07;;;;;;;0.13;0.13;;;;;;;;;;5128339;28;20043;-51
2023/08/07 13:15:33;;;;;;;0.20;0.20;;;;;;;;;;5120452;27;20044;-52
2023/08/07 13:17:59;;;;;;;0.20;0.20;;;;;;;;;;5123210;27;20039;-52
2023/08/07 13:20:26;;;;;;;0.20;0.20;;;;;;;;;;5128537;28;20043;-52
2023/08/07 13:22:52;;;;;;;0.20;0.20;;;;;;;;;;5127040;28;20096;-53
2023/08/07 13:25:17;;;;;;;0.20;0.20;;;;;;;;;;5128169;28;20063;-52
2023/08/07 13:27:43;;;;;;;0.20;0.20;;;;;;;;;;5127752;28;20456;-61
2023/08/07 13:30:09;;;;;;;0.20;0.20;;;;;;;;;;5125522;27;20083;-59
2023/08/07 13:32:34;;;;;;;0.20;0.20;;;;;;;;;;5125624;28;20063;-59
2023/08/07 13:35:00;;;;;;;0.20;0.20;;;;;;;;;;5127018;28;20047;-59
2023/08/07 13:37:26;;;;;;;0.20;0.20;;;;;;;;;;5124569;28;20050;-59
2023/08/07 13:39:52;;;;;;;0.17;0.17;;;;;;;;;;5126928;28;20081;-59
2023/08/07 13:42:18;;;;;;;0.20;0.20;;;;;;;;;;5126387;28;20039;-60
2023/08/07 13:44:44;;;;;;;0.20;0.20;;;;;;;;;;5126177;27;20482;-59
2023/08/07 13:47:11;;;;;;;0.20;0.20;;;;;;;;;;5124076;27;20039;-59
2023/08/07 13:49:36;;;;;;;0.20;0.20;;;;;;;;;;5127737;28;20051;-59
2023/08/07 13:52:02;;;;;;;0.20;0.20;;;;;;;;;;5126045;28;20039;-59
2023/08/07 13:54:28;;;;;;;0.20;0.20;;;;;;;;;;5126484;28;20039;-59
2023/08/07 13:56:53;;;;;;;0.20;0.20;;;;;;;;;;5124155;28;20043;-59
2023/08/07 13:59:19;;;;;;;0.20;0.20;;;;;;;;;;5118963;27;20043;-59
2023/08/07 14:01:44;;;;;;;0.20;0.20;;;;;;;;;;5117140;27;20050;-59
2023/08/07 14:04:10;;;;;;;0.20;0.20;;;;;;;;;;5109625;28;20292;-59
2023/08/07 14:06:36;;;;;;;0.20;0.20;;;;;;;;;;5118629;28;20050;-59
2023/08/07 14:09:02;;;;;;;0.13;0.13;;;;;;;;;;5119752;28;20392;-59
2023/08/07 14:11:30;;;;;;;0.10;0.10;;;;;;;;;;5122286;28;20145;-59
2023/08/07 14:13:57;;;;;;;0.20;0.20;;;;;;;;;;5123539;28;20253;-59
2023/08/07 14:16:23;;;;;;;0.20;0.20;;;;;;;;;;5123986;28;20050;-59
2023/08/07 14:18:48;;;;;;;0.10;0.10;;;;;;;;;;5122466;28;20043;-58
2023/08/07 14:21:14;;;;;;;0.10;0.10;;;;;;;;;;5121868;27;20410;-59
2023/08/07 14:23:42;;;;;;;0.20;0.20;;;;;;;;;;5121597;28;20055;-59
2023/08/07 14:26:07;;;;;;;0.20;0.20;;;;;;;;;;5122580;28;20051;-59
2023/08/07 14:28:33;;;;;;;0.20;0.20;;;;;;;;;;5122338;28;20054;-59
2023/08/07 14:30:59;;;;;;;0.35;0.30;;;;;;;;;;5121675;27;20046;-59
2023/08/07 14:33:25;;;;;;;0.20;0.20;;;;;;;;;;5123886;28;20047;-59
2023/08/07 14:35:51;;;;;;;0.10;0.10;;;;;;;;;;5119177;28;20476;-59
2023/08/07 14:38:16;;;;;;;0.10;0.10;;;;;;;;;;5121230;28;20039;-59